Time;durP1;ratioP1;P1;durP2;ratioP2;P2;SDS_P1;SDS_P2;PMS_P1;PMS_P2;Temp;Humidity;BMP_temperature;BMP_pressure;BME280_temperature;BME280_humidity;BME280_pressure;Samples;Min_cycle;Max_cycle;Signal;HPM_P1;HPM_P2
2022/07/27 00:01:23;;;;;;;1.73;1.00;;;;;;;21.71;51.38;101237.44;4843002;29;20113;-59
2022/07/27 00:03:49;;;;;;;1.20;0.70;;;;;;;21.75;51.45;101233.06;4842022;29;20026;-60
2022/07/27 00:06:15;;;;;;;2.38;1.00;;;;;;;21.15;52.90;101245.41;4843680;29;20050;-60
2022/07/27 00:08:42;;;;;;;1.88;1.00;;;;;;;21.73;51.51;101235.25;4843318;29;20030;-60
2022/07/27 00:11:09;;;;;;;1.38;0.70;;;;;;;21.75;51.46;101241.22;4844273;29;20042;-60
2022/07/27 00:13:35;;;;;;;2.45;0.80;;;;;;;21.78;51.63;101240.69;4839806;29;20066;-60
2022/07/27 00:16:02;;;;;;;1.08;0.60;;;;;;;21.56;52.04;101245.56;4825688;29;20105;-60
2022/07/27 00:18:28;;;;;;;1.88;0.98;;;;;;;21.57;52.62;101252.66;4837315;29;20038;-60
2022/07/27 00:20:54;;;;;;;4.15;0.95;;;;;;;21.53;52.17;101246.91;4824710;29;20022;-60
2022/07/27 00:23:21;;;;;;;1.65;0.93;;;;;;;21.50;52.79;101246.66;4839274;29;20457;-60
2022/07/27 00:25:47;;;;;;;0.77;0.63;;;;;;;21.35;52.76;101248.25;4842328;29;20177;-60
2022/07/27 00:28:13;;;;;;;2.08;0.68;;;;;;;21.03;53.20;101239.38;4842681;29;20034;-60
2022/07/27 00:30:39;;;;;;;1.60;0.82;;;;;;;20.73;53.78;101243.59;4842350;29;20045;-60
2022/07/27 00:33:06;;;;;;;0.80;0.70;;;;;;;20.67;54.50;101249.28;4842228;29;20034;-60
2022/07/27 00:35:32;;;;;;;0.98;0.60;;;;;;;20.54;54.38;101236.94;4831200;29;20041;-60
2022/07/27 00:37:59;;;;;;;0.60;0.60;;;;;;;20.25;55.26;101236.47;4828198;29;20029;-60
2022/07/27 00:40:25;;;;;;;0.60;0.60;;;;;;;20.42;55.27;101239.84;4834069;29;20061;-60
2022/07/27 00:42:51;;;;;;;1.85;0.80;;;;;;;20.52;55.00;101234.50;4841241;29;20394;-60
2022/07/27 00:45:17;;;;;;;1.42;0.70;;;;;;;20.38;55.09;101233.31;4843707;29;20038;-60
2022/07/27 00:47:44;;;;;;;1.35;0.65;;;;;;;20.29;55.73;101238.41;4844390;29;20038;-60
2022/07/27 00:50:10;;;;;;;1.23;0.80;;;;;;;20.56;55.60;101226.66;4842751;29;20038;-60
2022/07/27 00:52:37;;;;;;;0.70;0.50;;;;;;;20.06;56.44;101235.25;4843163;29;20112;-59
2022/07/27 00:55:05;;;;;;;0.85;0.80;;;;;;;20.22;56.56;101234.28;4839774;29;20464;-59
2022/07/27 00:57:32;;;;;;;1.40;0.68;;;;;;;20.00;56.93;101229.75;4839520;29;20113;-59
2022/07/27 00:59:58;;;;;;;0.82;0.68;;;;;;;19.92;57.68;101237.56;4839465;29;20436;-59
2022/07/27 01:02:25;;;;;;;0.70;0.60;;;;;;;20.03;56.88;101229.22;4843311;29;20034;-60
2022/07/27 01:04:51;;;;;;;0.63;0.60;;;;;;;20.16;57.21;101236.13;4839918;29;20518;-60
2022/07/27 01:07:18;;;;;;;1.05;0.70;;;;;;;20.33;56.71;101235.16;4841357;29;20049;-60
2022/07/27 01:09:57;;;;;;;2.03;0.68;;;;;;;20.12;57.57;101228.75;4839615;29;20026;-60
2022/07/27 01:12:31;;;;;;;1.05;0.60;;;;;;;20.38;57.16;101235.22;4828201;29;20091;-60
2022/07/27 01:14:58;;;;;;;3.53;0.80;;;;;;;20.37;56.92;101225.38;4832565;29;20088;-60
2022/07/27 01:17:26;;;;;;;1.17;0.70;;;;;;;20.52;57.31;101228.25;4832264;29;20114;-60
2022/07/27 01:19:52;;;;;;;0.40;0.40;;;;;;;20.62;55.82;101232.94;4824598;29;20035;-61
2022/07/27 01:22:19;;;;;;;0.93;0.50;;;;;;;20.48;56.59;101229.84;4842014;29;20073;-60
2022/07/27 01:24:45;;;;;;;0.82;0.40;;;;;;;20.30;56.76;101231.88;4824793;29;20388;-60
2022/07/27 01:27:11;;;;;;;1.13;1.02;;;;;;;20.46;56.25;101230.13;4840993;29;20117;-60
2022/07/27 01:29:38;;;;;;;1.77;0.88;;;;;;;20.40;56.48;101228.41;4833137;29;20095;-60
2022/07/27 01:32:04;;;;;;;0.80;0.60;;;;;;;20.44;56.69;101232.25;4845808;29;20033;-60
2022/07/27 01:34:33;;;;;;;0.65;0.40;;;;;;;20.38;56.33;101240.66;4847372;29;20387;-60
2022/07/27 01:37:02;;;;;;;1.85;0.45;;;;;;;20.35;56.55;101231.09;4824212;29;20043;-60
2022/07/27 01:39:29;;;;;;;0.50;0.50;;;;;;;20.14;55.86;101235.56;4824482;29;20038;-59
2022/07/27 01:41:56;;;;;;;1.38;0.40;;;;;;;20.15;56.69;101239.09;4824209;29;20038;-60
2022/07/27 01:44:22;;;;;;;1.52;0.45;;;;;;;20.14;57.15;101235.56;4824035;29;20027;-60
2022/07/27 01:46:48;;;;;;;0.50;0.50;;;;;;;20.26;57.20;101238.91;4824765;29;20076;-60
2022/07/27 01:49:15;;;;;;;0.50;0.30;;;;;;;20.21;56.91;101241.63;4826315;29;20039;-58
2022/07/27 01:51:41;;;;;;;1.30;0.47;;;;;;;20.15;57.47;101241.81;4828889;29;20095;-59
2022/07/27 01:54:07;;;;;;;0.40;0.40;;;;;;;19.88;57.65;101236.44;4824287;29;20547;-60
2022/07/27 01:56:33;;;;;;;3.05;0.40;;;;;;;20.02;57.94;101243.06;4841824;29;20112;-59
2022/07/27 01:58:59;;;;;;;0.28;0.28;;;;;;;20.26;57.23;101252.50;4827323;29;20360;-59
2022/07/27 02:01:26;;;;;;;0.45;0.40;;;;;;;20.27;57.18;101246.00;4839426;29;21083;-59
2022/07/27 02:03:52;;;;;;;1.15;0.50;;;;;;;20.34;57.51;101258.56;4838927;29;20099;-59
2022/07/27 02:06:18;;;;;;;1.00;0.60;;;;;;;20.31;56.73;101246.28;4839676;29;20490;-59
2022/07/27 02:08:44;;;;;;;1.20;0.43;;;;;;;20.69;56.58;101252.53;4841838;29;20037;-59
2022/07/27 02:13:55;;;;;;;1.07;0.40;;;;;;;20.31;56.54;101247.09;4841200;29;20037;-59
2022/07/27 02:16:21;;;;;;;0.40;0.30;;;;;;;19.64;58.65;101250.34;4831284;29;21011;-59
2022/07/27 02:18:47;;;;;;;1.00;0.57;;;;;;;19.67;58.80;101249.84;4824138;29;20045;-60
2022/07/27 02:21:14;;;;;;;0.95;0.30;;;;;;;20.09;57.92;101257.25;4823464;29;20538;-59
2022/07/27 02:23:43;;;;;;;1.77;0.60;;;;;;;20.38;57.05;101251.53;4823447;29;20039;-59
2022/07/27 02:26:09;;;;;;;1.80;0.50;;;;;;;20.68;56.54;101253.63;4839982;29;20041;-59
2022/07/27 02:28:36;;;;;;;1.67;0.50;;;;;;;20.50;56.23;101249.44;4841815;29;20030;-60
2022/07/27 02:31:02;;;;;;;0.30;0.30;;;;;;;20.61;55.73;101262.03;4840580;29;20044;-60
2022/07/27 02:33:28;;;;;;;0.55;0.38;;;;;;;20.85;55.41;101251.53;4839914;29;20044;-59
2022/07/27 02:35:55;;;;;;;2.10;0.52;;;;;;;20.49;56.04;101250.53;4841138;29;20054;-59
2022/07/27 02:38:21;;;;;;;0.68;0.30;;;;;;;20.39;57.04;101258.59;4839650;29;20029;-59
2022/07/27 02:40:47;;;;;;;1.17;0.60;;;;;;;20.24;57.10;101257.38;4827781;29;20042;-59
2022/07/27 02:43:14;;;;;;;0.50;0.47;;;;;;;20.29;56.00;101265.59;4823217;29;20396;-59
2022/07/27 02:45:40;;;;;;;0.30;0.30;;;;;;;19.87;57.06;101268.19;4836220;29;20495;-60
2022/07/27 02:48:06;;;;;;;0.45;0.28;;;;;;;19.89;57.97;101267.97;4824260;29;20026;-59
2022/07/27 02:50:32;;;;;;;0.95;0.40;;;;;;;19.85;57.95;101266.84;4834833;29;20125;-59
2022/07/27 02:52:58;;;;;;;0.75;0.35;;;;;;;19.72;58.39;101268.91;4840018;29;20083;-59
2022/07/27 02:55:24;;;;;;;1.20;0.57;;;;;;;19.53;59.03;101273.00;4831295;29;20488;-59
2022/07/27 02:57:51;;;;;;;2.70;0.95;;;;;;;19.14;60.10;101274.97;4822967;29;20039;-60
2022/07/27 03:00:17;;;;;;;2.35;0.30;;;;;;;18.93;60.30;101279.31;4831280;29;20495;-59
2022/07/27 03:02:48;;;;;;;1.85;0.32;;;;;;;18.70;61.16;101283.06;4840437;29;20048;-59
2022/07/27 03:05:14;;;;;;;0.20;0.20;;;;;;;18.61;61.70;101282.66;4839940;29;20460;-59
2022/07/27 03:07:41;;;;;;;0.43;0.30;;;;;;;18.59;62.29;101284.78;4838923;29;20030;-59
2022/07/27 03:10:08;;;;;;;1.75;0.60;;;;;;;18.34;62.58;101285.22;4841183;29;20034;-59
2022/07/27 03:12:34;;;;;;;0.50;0.40;;;;;;;18.12;63.91;101282.41;4832945;29;20037;-59
2022/07/27 03:15:00;;;;;;;0.40;0.40;;;;;;;17.91;64.45;101288.53;4826576;29;20437;-60
2022/07/27 03:17:26;;;;;;;1.23;0.35;;;;;;;17.83;64.74;101292.47;4838727;29;20041;-59
2022/07/27 03:19:52;;;;;;;6.28;0.65;;;;;;;17.68;65.27;101290.28;4834392;29;20090;-59
2022/07/27 03:22:19;;;;;;;0.60;0.40;;;;;;;17.77;65.34;101300.75;4839047;29;20041;-60
2022/07/27 03:24:45;;;;;;;0.43;0.40;;;;;;;17.63;65.44;101302.88;4829477;29;20044;-59
2022/07/27 03:27:12;;;;;;;0.63;0.47;;;;;;;17.63;65.29;101292.06;4822172;29;20035;-59
2022/07/27 03:29:38;;;;;;;0.60;0.40;;;;;;;17.54;65.93;101305.13;4822832;29;20038;-59
2022/07/27 03:32:05;;;;;;;0.70;0.47;;;;;;;17.36;66.38;101313.44;4823595;29;20041;-59
2022/07/27 03:34:31;;;;;;;0.65;0.30;;;;;;;17.35;67.00;101309.09;4825489;29;20069;-63
2022/07/27 03:36:57;;;;;;;0.55;0.47;;;;;;;17.11;67.83;101295.63;4833570;29;20493;-59
2022/07/27 03:39:23;;;;;;;0.38;0.38;;;;;;;17.05;68.35;101302.00;4846977;29;20037;-59
2022/07/27 03:41:49;;;;;;;1.23;0.50;;;;;;;16.86;68.91;101308.59;4839647;29;20030;-60
2022/07/27 03:44:16;;;;;;;0.65;0.40;;;;;;;16.84;68.59;101316.13;4839018;29;20038;-59
2022/07/27 03:46:42;;;;;;;1.23;0.43;;;;;;;16.89;68.79;101313.53;4839676;29;20057;-59
2022/07/27 03:49:08;;;;;;;0.85;0.40;;;;;;;17.05;68.05;101323.63;4837886;29;20041;-59
2022/07/27 03:51:34;;;;;;;0.38;0.22;;;;;;;16.95;68.30;101319.88;4824908;29;20038;-59
2022/07/27 03:54:02;;;;;;;1.50;0.28;;;;;;;16.85;69.07;101325.88;4822673;29;20038;-59
2022/07/27 03:56:28;;;;;;;0.40;0.40;;;;;;;16.71;69.45;101332.56;4829149;29;20030;-59
2022/07/27 03:58:55;;;;;;;0.80;0.68;;;;;;;16.75;69.02;101322.94;4838559;29;20483;-59
2022/07/27 04:01:21;;;;;;;0.98;0.50;;;;;;;16.59;69.54;101325.25;4836814;29;20026;-59
2022/07/27 04:03:47;;;;;;;1.90;0.47;;;;;;;16.43;70.59;101325.09;4853395;29;20044;-59
2022/07/27 04:06:13;;;;;;;0.82;0.35;;;;;;;16.29;71.06;101330.72;4843760;29;20105;-59
2022/07/27 04:08:40;;;;;;;0.43;0.30;;;;;;;16.54;70.31;101332.41;4833332;29;20042;-59
2022/07/27 04:11:06;;;;;;;1.30;0.30;;;;;;;16.47;70.41;101329.00;4825002;29;20069;-59
2022/07/27 04:13:32;;;;;;;0.40;0.20;;;;;;;16.37;70.22;101333.06;4843277;29;20022;-59
2022/07/27 04:15:58;;;;;;;0.22;0.13;;;;;;;16.44;70.02;101332.19;4840318;29;20126;-59
2022/07/27 04:18:24;;;;;;;0.20;0.20;;;;;;;16.33;70.38;101337.31;4839959;29;20401;-59
2022/07/27 04:20:51;;;;;;;0.13;0.10;;;;;;;16.24;70.71;101341.41;4852243;29;20128;-59
2022/07/27 04:23:17;;;;;;;0.20;0.20;;;;;;;16.10;71.20;101343.50;4849276;29;20049;-59
2022/07/27 04:25:43;;;;;;;0.17;0.17;;;;;;;16.16;71.18;101343.59;4859720;29;20462;-59
2022/07/27 04:28:09;;;;;;;0.10;0.10;;;;;;;16.09;71.55;101352.63;4850534;29;20562;-59
2022/07/27 04:30:35;;;;;;;0.57;0.25;;;;;;;16.08;71.84;101358.25;4830874;29;20046;-59
2022/07/27 04:33:02;;;;;;;1.65;0.20;;;;;;;16.12;71.14;101353.22;4832218;29;20099;-59
2022/07/27 04:35:28;;;;;;;0.13;0.13;;;;;;;16.20;71.14;101366.41;4843534;29;20036;-59
2022/07/27 04:37:54;;;;;;;0.25;0.10;;;;;;;15.87;72.32;101358.75;4845372;29;20465;-59
2022/07/27 04:40:20;;;;;;;0.70;0.13;;;;;;;15.97;71.97;101359.88;4843653;29;20568;-59
2022/07/27 04:42:47;;;;;;;0.28;0.20;;;;;;;16.00;72.06;101364.81;4838938;29;20491;-59
2022/07/27 04:45:13;;;;;;;0.30;0.17;;;;;;;15.93;72.14;101368.66;4834804;29;20111;-59
2022/07/27 04:47:39;;;;;;;0.30;0.20;;;;;;;16.06;72.41;101363.09;4825505;29;20476;-59
2022/07/27 04:50:06;;;;;;;0.22;0.13;;;;;;;16.03;72.02;101367.03;4841240;29;20030;-59
2022/07/27 04:52:32;;;;;;;0.10;0.10;;;;;;;15.87;72.40;101369.56;4843344;29;20034;-59
2022/07/27 04:54:58;;;;;;;0.20;0.20;;;;;;;15.92;72.66;101372.41;4843295;29;20033;-59
2022/07/27 04:57:24;;;;;;;1.55;0.30;;;;;;;15.82;72.77;101367.53;4841558;29;20491;-59
2022/07/27 04:59:50;;;;;;;0.20;0.20;;;;;;;15.78;72.83;101371.78;4843246;29;20058;-59
2022/07/27 05:02:17;;;;;;;1.40;0.75;;;;;;;15.84;72.63;101370.84;4829011;29;20037;-59
2022/07/27 05:04:43;;;;;;;0.75;0.30;;;;;;;15.88;72.73;101374.75;4828593;29;20036;-59
2022/07/27 05:07:09;;;;;;;0.10;0.10;;;;;;;15.74;73.28;101371.38;4824179;29;20031;-59
2022/07/27 05:09:35;;;;;;;0.38;0.20;;;;;;;15.86;73.14;101376.00;4837774;29;20041;-59
2022/07/27 05:12:01;;;;;;;0.50;0.22;;;;;;;15.84;73.29;101387.06;4841359;29;20117;-59
2022/07/27 05:14:28;;;;;;;2.30;0.50;;;;;;;15.89;73.22;101381.78;4858733;29;20034;-59
2022/07/27 05:16:54;;;;;;;0.82;0.43;;;;;;;15.74;73.88;101390.28;4834362;29;20563;-59
2022/07/27 05:19:21;;;;;;;0.20;0.17;;;;;;;15.70;73.81;101386.38;4824493;29;20031;-59
2022/07/27 05:21:47;;;;;;;0.28;0.28;;;;;;;15.75;73.87;101385.72;4838223;29;20391;-59
2022/07/27 05:24:13;;;;;;;0.25;0.25;;;;;;;15.68;74.25;101393.88;4841543;29;20034;-59
2022/07/27 05:26:39;;;;;;;0.30;0.20;;;;;;;15.66;74.13;101398.69;4842525;29;20034;-59
2022/07/27 05:29:05;;;;;;;0.40;0.20;;;;;;;15.65;74.43;101388.94;4840937;29;20085;-59
2022/07/27 05:31:32;;;;;;;0.30;0.20;;;;;;;15.71;74.28;101393.44;4840518;29;20030;-59
2022/07/27 05:33:58;;;;;;;0.43;0.20;;;;;;;15.73;74.33;101393.22;4842417;29;20060;-59
2022/07/27 05:36:24;;;;;;;0.93;0.15;;;;;;;15.55;75.12;101396.72;4840170;29;20046;-59
2022/07/27 05:38:51;;;;;;;0.85;0.28;;;;;;;15.60;74.98;101386.06;4842555;29;20167;-59
2022/07/27 05:41:25;;;;;;;0.20;0.20;;;;;;;15.52;75.33;101386.38;4840576;29;20510;-59
2022/07/27 05:43:53;;;;;;;0.25;0.25;;;;;;;15.59;75.37;101392.50;4842236;29;20076;-59
2022/07/27 05:46:20;;;;;;;0.17;0.10;;;;;;;15.69;74.92;101390.13;4838273;29;20404;-59
2022/07/27 05:48:46;;;;;;;0.20;0.10;;;;;;;15.61;75.46;101395.00;4825005;29;20121;-59
2022/07/27 05:51:12;;;;;;;0.55;0.10;;;;;;;15.44;76.19;101398.28;4842385;29;20487;-59
2022/07/27 05:53:38;;;;;;;0.30;0.10;;;;;;;15.48;75.90;101396.78;4840941;29;20041;-59
2022/07/27 05:56:06;;;;;;;0.45;0.30;;;;;;;15.44;76.17;101392.06;4842128;29;20508;-59
2022/07/27 05:58:33;;;;;;;0.25;0.20;;;;;;;15.52;76.03;101389.88;4834682;29;20109;-59
2022/07/27 06:00:59;;;;;;;0.30;0.22;;;;;;;15.54;75.57;101382.38;4833860;29;20061;-58
2022/07/27 06:03:26;;;;;;;0.30;0.20;;;;;;;15.50;75.80;101392.00;4836917;29;20770;-59
2022/07/27 06:07:57;;;;;;;0.45;0.10;;;;;;;15.52;75.71;101387.19;4823710;29;20052;-59
2022/07/27 06:08:38;;;;;;;0.20;0.20;;;;;;;15.57;75.71;101395.44;4823849;29;20524;-59
2022/07/27 06:11:04;;;;;;;0.63;0.10;;;;;;;15.65;75.20;101398.91;4838435;29;20034;-59
2022/07/27 06:13:34;;;;;;;0.10;0.10;;;;;;;15.70;74.82;101401.75;4834918;29;20026;-59
2022/07/27 06:16:00;;;;;;;0.10;0.10;;;;;;;15.65;75.34;101398.91;4839602;29;20041;-59
2022/07/27 06:18:27;;;;;;;0.57;0.20;;;;;;;15.76;75.11;101398.97;4836370;29;20095;-59
2022/07/27 06:20:53;;;;;;;0.20;0.20;;;;;;;15.82;75.01;101405.34;4823244;29;20034;-58
2022/07/27 06:23:19;;;;;;;0.20;0.10;;;;;;;15.68;75.46;101412.78;4823820;29;20522;-59
2022/07/27 06:25:45;;;;;;;0.20;0.20;;;;;;;15.79;74.74;101416.59;4823596;29;20038;-59
2022/07/27 06:28:11;;;;;;;0.20;0.10;;;;;;;15.84;74.61;101411.34;4831523;29;20045;-59
2022/07/27 06:30:41;;;;;;;0.68;0.20;;;;;;;15.85;74.90;101410.28;4840624;29;20030;-59
2022/07/27 06:33:08;;;;;;;0.10;0.10;;;;;;;15.92;74.35;101411.03;4825741;29;20117;-59
2022/07/27 06:35:34;;;;;;;0.30;0.20;;;;;;;15.87;74.49;101412.75;4839675;29;20395;-59
2022/07/27 06:38:01;;;;;;;0.30;0.20;;;;;;;15.90;74.17;101415.84;4823745;29;20117;-59
2022/07/27 06:40:28;;;;;;;0.60;0.10;;;;;;;15.97;74.01;101419.25;4826680;29;20430;-59
2022/07/27 06:42:54;;;;;;;0.10;0.10;;;;;;;16.07;73.26;101419.56;4833974;29;20034;-59
2022/07/27 06:45:20;;;;;;;0.20;0.20;;;;;;;16.11;73.64;101417.22;4841022;29;20513;-59
2022/07/27 06:47:47;;;;;;;0.25;0.20;;;;;;;16.16;73.60;101413.81;4830993;29;20038;-59
2022/07/27 06:50:13;;;;;;;0.57;0.20;;;;;;;16.01;73.80;101420.47;4840597;29;20060;-59
2022/07/27 06:52:39;;;;;;;0.57;0.20;;;;;;;16.13;73.20;101414.28;4834063;29;20096;-59
2022/07/27 06:55:06;;;;;;;0.45;0.20;;;;;;;16.22;72.47;101418.34;4833546;29;20077;-59
2022/07/27 06:57:32;;;;;;;0.73;0.20;;;;;;;16.39;72.50;101415.81;4824721;29;20065;-59
2022/07/27 06:59:58;;;;;;;0.25;0.17;;;;;;;16.19;73.40;101419.59;4828062;29;20042;-58
2022/07/27 07:02:25;;;;;;;0.20;0.20;;;;;;;16.34;72.68;101421.88;4827207;29;20089;-59
2022/07/27 07:04:51;;;;;;;0.32;0.22;;;;;;;16.22;73.01;101419.16;4825219;29;20052;-58
2022/07/27 07:07:17;;;;;;;0.20;0.20;;;;;;;16.15;73.10;101423.81;4822886;29;20038;-59
2022/07/27 07:09:43;;;;;;;0.25;0.20;;;;;;;16.20;72.85;101425.81;4824826;29;20034;-59
2022/07/27 07:12:09;;;;;;;0.20;0.20;;;;;;;15.97;73.71;101419.25;4826523;29;20082;-59
2022/07/27 07:14:36;;;;;;;0.40;0.20;;;;;;;16.14;73.27;101418.63;4839267;29;20518;-59
2022/07/27 07:17:02;;;;;;;1.73;0.40;;;;;;;16.07;73.74;101418.72;4836627;29;20468;-58
2022/07/27 07:19:28;;;;;;;0.30;0.30;;;;;;;16.16;73.20;101413.81;4840351;29;20487;-59
2022/07/27 07:21:54;;;;;;;0.30;0.30;;;;;;;16.08;73.69;101414.97;4833907;29;20820;-59
2022/07/27 07:24:21;;;;;;;0.30;0.20;;;;;;;16.27;73.43;101413.06;4824669;29;20034;-59
2022/07/27 07:26:47;;;;;;;0.68;0.40;;;;;;;16.26;73.22;101411.41;4822872;29;20630;-59
2022/07/27 07:29:13;;;;;;;0.57;0.30;;;;;;;16.18;72.92;101411.72;4824055;29;20035;-59
2022/07/27 07:31:39;;;;;;;0.40;0.40;;;;;;;16.13;73.44;101406.19;4842565;29;20086;-59
2022/07/27 07:34:05;;;;;;;0.28;0.22;;;;;;;16.23;72.37;101412.69;4843846;29;20030;-59
2022/07/27 07:36:32;;;;;;;0.40;0.40;;;;;;;16.27;72.43;101408.50;4828841;29;20528;-59
2022/07/27 07:38:59;;;;;;;0.75;0.40;;;;;;;16.32;72.32;101410.47;4825864;29;20038;-59
2022/07/27 07:41:26;;;;;;;1.13;0.40;;;;;;;16.41;71.86;101417.22;4825940;29;20031;-59
2022/07/27 07:43:52;;;;;;;0.25;0.20;;;;;;;16.34;71.96;101413.78;4836400;29;20034;-59
2022/07/27 07:46:18;;;;;;;0.25;0.20;;;;;;;16.23;72.18;101410.00;4837556;29;20159;-59
2022/07/27 07:48:45;;;;;;;0.40;0.40;;;;;;;16.08;72.70;101409.56;4834140;29;20038;-59
2022/07/27 07:51:11;;;;;;;0.40;0.25;;;;;;;16.16;72.79;101409.28;4825986;29;20023;-59
2022/07/27 07:53:37;;;;;;;1.13;0.40;;;;;;;16.07;72.73;101408.75;4826097;29;20038;-59
2022/07/27 07:56:04;;;;;;;0.60;0.40;;;;;;;16.03;72.96;101401.31;4827038;29;20058;-59
2022/07/27 07:58:30;;;;;;;0.30;0.30;;;;;;;15.88;73.62;101395.50;4825788;29;20083;-59
2022/07/27 08:00:57;;;;;;;0.90;0.40;;;;;;;15.89;73.73;101406.09;4825955;29;20033;-59
2022/07/27 08:03:23;;;;;;;0.38;0.32;;;;;;;15.77;73.94;101402.50;4831615;29;20037;-59
2022/07/27 08:05:49;;;;;;;0.50;0.50;;;;;;;15.74;74.09;101408.34;4843955;29;20121;-59
2022/07/27 08:08:16;;;;;;;0.40;0.40;;;;;;;15.79;73.87;101401.22;4828960;29;20037;-59
2022/07/27 08:10:43;;;;;;;0.45;0.38;;;;;;;15.74;73.68;101403.78;4825335;29;20057;-59
2022/07/27 08:13:09;;;;;;;0.30;0.30;;;;;;;15.74;73.79;101395.69;4825696;29;20045;-59
2022/07/27 08:15:35;;;;;;;0.40;0.40;;;;;;;15.74;73.53;101397.56;4838375;29;20198;-59
2022/07/27 08:18:02;;;;;;;0.63;0.32;;;;;;;15.82;73.60;101400.78;4841217;29;20554;-59
2022/07/27 08:20:29;;;;;;;0.20;0.20;;;;;;;15.69;73.46;101398.22;4826000;29;20051;-59
2022/07/27 08:22:55;;;;;;;0.30;0.30;;;;;;;15.68;73.58;101410.06;4825342;29;20038;-59
2022/07/27 08:25:21;;;;;;;0.68;0.50;;;;;;;15.78;73.50;101406.84;4834248;29;20030;-59
2022/07/27 08:27:47;;;;;;;0.30;0.30;;;;;;;15.78;73.25;101404.16;4840554;29;20042;-59
2022/07/27 08:30:14;;;;;;;0.20;0.20;;;;;;;15.86;72.99;101413.81;4840550;29;20034;-59
2022/07/27 08:32:52;;;;;;;0.32;0.30;;;;;;;15.75;73.04;101405.41;4837133;29;20456;-59
2022/07/27 08:35:19;;;;;;;0.73;0.30;;;;;;;15.75;73.48;101407.28;4825357;29;20130;-59
2022/07/27 08:37:45;;;;;;;0.20;0.20;;;;;;;15.67;73.56;101407.63;4824893;29;20046;-59
2022/07/27 08:40:12;;;;;;;0.43;0.30;;;;;;;15.68;74.04;101403.88;4826923;29;20034;-59
2022/07/27 08:42:42;;;;;;;0.52;0.30;;;;;;;15.61;73.93;101412.00;4828100;29;20041;-59
2022/07/27 08:45:10;;;;;;;0.30;0.30;;;;;;;15.59;73.83;101406.00;4838862;29;20033;-59
2022/07/27 08:47:39;;;;;;;0.20;0.20;;;;;;;15.65;73.74;101407.00;4840674;29;20030;-59
2022/07/27 08:50:22;;;;;;;0.20;0.20;;;;;;;15.72;73.53;101400.50;4834051;29;20038;-59
2022/07/27 08:52:50;;;;;;;0.22;0.20;;;;;;;15.66;74.50;101397.88;4829757;29;20048;-59
2022/07/27 08:55:16;;;;;;;0.20;0.20;;;;;;;15.68;73.81;101399.28;4817670;29;20043;-59
2022/07/27 08:57:42;;;;;;;0.20;0.20;;;;;;;15.56;74.08;101396.50;4817410;29;20391;-59
2022/07/27 09:00:11;;;;;;;0.20;0.20;;;;;;;15.53;74.58;101402.31;4840117;29;20030;-59
2022/07/27 09:02:39;;;;;;;1.10;0.20;;;;;;;15.58;74.57;101396.25;4836480;29;20038;-58
2022/07/27 09:05:06;;;;;;;0.20;0.20;;;;;;;15.56;74.71;101399.19;4841486;29;20041;-58
2022/07/27 09:07:32;;;;;;;0.43;0.17;;;;;;;15.68;74.37;101399.28;4836528;29;20122;-59
2022/07/27 09:09:59;;;;;;;0.30;0.30;;;;;;;15.80;73.33;101399.34;4824936;29;20499;-59
2022/07/27 09:12:29;;;;;;;0.20;0.20;;;;;;;15.82;73.69;101402.63;4824416;29;20051;-59
2022/07/27 09:15:06;;;;;;;0.20;0.20;;;;;;;15.66;74.52;101400.56;4826019;29;20492;-59
2022/07/27 09:17:33;;;;;;;0.43;0.30;;;;;;;15.54;74.87;101398.56;4840328;29;20455;-59
2022/07/27 09:20:02;;;;;;;0.50;0.50;;;;;;;15.84;74.02;101404.06;4842058;29;20041;-58
2022/07/27 09:22:42;;;;;;;0.40;0.30;;;;;;;15.82;73.68;101408.88;4833976;29;20153;-59
2022/07/27 09:25:11;;;;;;;0.20;0.20;;;;;;;15.79;74.12;101405.81;4826186;29;20050;-59
2022/07/27 09:27:37;;;;;;;0.30;0.30;;;;;;;15.72;74.38;101399.66;4824660;29;20379;-59
2022/07/27 09:30:09;;;;;;;0.30;0.30;;;;;;;15.82;74.30;101402.63;4831272;29;20376;-59
2022/07/27 09:32:36;;;;;;;0.20;0.20;;;;;;;15.84;73.84;101408.66;4824554;29;20079;-59
2022/07/27 09:35:23;;;;;;;0.28;0.25;;;;;;;15.79;73.73;101408.50;4829278;29;20041;-59
2022/07/27 09:37:49;;;;;;;0.22;0.20;;;;;;;15.68;74.08;101398.47;4841294;29;20125;-59
2022/07/27 09:40:22;;;;;;;0.70;0.20;;;;;;;15.57;74.08;101403.53;4841693;29;20049;-58
2022/07/27 09:43:09;;;;;;;0.15;0.15;;;;;;;15.68;73.74;101415.47;4841285;29;20113;-59
2022/07/27 09:45:37;;;;;;;0.38;0.20;;;;;;;15.66;73.98;101403.28;4824940;29;20117;-59
2022/07/27 09:48:09;;;;;;;0.30;0.30;;;;;;;15.54;74.60;101403.97;4838032;29;20059;-59
2022/07/27 09:50:40;;;;;;;0.35;0.20;;;;;;;15.53;74.73;101407.72;4832952;29;20034;-59
2022/07/27 09:53:20;;;;;;;0.10;0.10;;;;;;;15.77;73.79;101406.03;4832219;29;20440;-59
2022/07/27 09:55:59;;;;;;;0.20;0.20;;;;;;;15.67;73.89;101408.44;4841324;29;20110;-58
2022/07/27 09:58:49;;;;;;;0.22;0.20;;;;;;;15.75;74.07;101412.69;4824209;29;20055;-58
2022/07/27 10:01:22;;;;;;;0.30;0.20;;;;;;;15.62;74.42;101404.75;4827584;29;20042;-58
2022/07/27 10:03:51;;;;;;;0.40;0.30;;;;;;;15.49;74.81;101414.63;4840802;29;20105;-59
2022/07/27 10:06:17;;;;;;;0.43;0.10;;;;;;;15.53;74.68;101413.13;4840841;29;20071;-59
2022/07/27 10:08:47;;;;;;;0.30;0.30;;;;;;;15.68;74.14;101414.66;4841970;29;20089;-58
2022/07/27 10:11:14;;;;;;;0.20;0.20;;;;;;;15.65;74.50;101409.69;4836514;29;20503;-58
2022/07/27 10:13:41;;;;;;;0.40;0.20;;;;;;;15.54;75.05;101416.63;4824469;29;20045;-59
2022/07/27 10:16:14;;;;;;;1.35;0.20;;;;;;;15.63;74.66;101406.41;4827165;29;20026;-58
2022/07/27 10:19:01;;;;;;;0.10;0.10;;;;;;;15.58;74.81;101410.56;4832960;29;20026;-58
2022/07/27 10:21:27;;;;;;;0.40;0.20;;;;;;;15.59;74.77;101401.41;4841596;29;20480;-58
2022/07/27 10:24:03;;;;;;;0.20;0.20;;;;;;;15.62;74.37;101402.03;4839432;29;20033;-58
2022/07/27 10:26:32;;;;;;;0.30;0.20;;;;;;;15.56;74.11;101396.50;4825623;29;20030;-58
2022/07/27 10:29:14;;;;;;;0.30;0.20;;;;;;;15.62;74.31;101399.34;4823895;29;20591;-58
2022/07/27 10:31:58;;;;;;;0.20;0.20;;;;;;;15.50;74.24;101397.41;4829887;29;20118;-58
2022/07/27 10:34:41;;;;;;;0.40;0.20;;;;;;;15.49;74.75;101401.16;4841617;29;20437;-58
2022/07/27 10:37:14;;;;;;;0.20;0.20;;;;;;;15.43;74.25;101402.00;4827195;29;20111;-58
2022/07/27 10:43:21;;;;;;;0.10;0.10;;;;;;;15.52;73.61;101399.84;4801406;29;20045;-58
2022/07/27 10:45:51;;;;;;;0.47;0.10;;;;;;;15.68;73.32;101398.47;4795346;29;20035;-58
2022/07/27 10:48:38;;;;;;;0.20;0.10;;;;;;;15.58;73.28;101385.47;4823692;29;20046;-58
2022/07/27 10:51:06;;;;;;;0.10;0.10;;;;;;;15.40;73.93;101386.28;4840345;29;20041;-58
2022/07/27 10:53:35;;;;;;;0.20;0.20;;;;;;;15.44;73.85;101382.09;4837933;29;20081;-58
2022/07/27 10:56:02;;;;;;;0.90;0.10;;;;;;;15.47;73.80;101386.22;4825408;29;20026;-58
2022/07/27 10:58:28;;;;;;;0.00;0.00;;;;;;;15.25;74.69;101388.53;4826278;29;20022;-58
2022/07/27 11:00:54;;;;;;;0.20;0.20;;;;;;;15.34;74.48;101397.16;4839312;29;20072;-58
2022/07/27 11:03:24;;;;;;;1.00;0.30;;;;;;;15.35;74.23;101394.22;4841141;29;20030;-58
2022/07/27 11:06:09;;;;;;;0.10;0.10;;;;;;;15.49;73.90;101393.06;4833133;29;20036;-58
2022/07/27 11:08:46;;;;;;;0.20;0.20;;;;;;;15.49;73.81;101398.44;4846420;29;20025;-59
2022/07/27 11:11:21;;;;;;;0.08;0.08;;;;;;;15.37;74.03;101396.69;4834698;29;20029;-58
2022/07/27 11:13:51;;;;;;;0.10;0.10;;;;;;;15.30;74.23;101399.47;4841884;29;20395;-59
2022/07/27 11:16:18;;;;;;;1.27;0.17;;;;;;;15.27;74.69;101399.94;4827586;29;20122;-59
2022/07/27 11:18:53;;;;;;;0.10;0.10;;;;;;;15.16;75.48;101397.97;4824201;29;20084;-58
2022/07/27 11:21:33;;;;;;;0.43;0.20;;;;;;;15.21;75.49;101400.81;4828289;29;20489;-59
2022/07/27 11:24:12;;;;;;;0.40;0.20;;;;;;;15.27;75.05;101400.75;4843235;29;20778;-59
2022/07/27 11:26:44;;;;;;;0.20;0.10;;;;;;;15.32;74.95;101400.06;4831197;29;20031;-59
2022/07/27 11:29:12;;;;;;;0.10;0.05;;;;;;;15.29;74.66;101403.22;4824448;29;20034;-59
2022/07/27 11:31:40;;;;;;;0.10;0.10;;;;;;;15.27;74.83;101403.47;4826635;29;20030;-59
2022/07/27 11:34:07;;;;;;;0.00;0.00;;;;;;;15.31;74.45;101401.13;4839150;29;20048;-59